Time;durP1;ratioP1;P1;durP2;ratioP2;P2;SDS_P1;SDS_P2;PMS_P1;PMS_P2;Temp;Humidity;BMP_temperature;BMP_pressure;BME280_temperature;BME280_humidity;BME280_pressure;Samples;Min_cycle;Max_cycle;Signal;HPM_P1;HPM_P2
2022/09/06 00:01:31;;;;;;;4.97;4.30;;;17.50;99.90;;;;;;5030424;28;20204;-75
2022/09/06 00:03:56;;;;;;;4.60;4.20;;;17.40;99.90;;;;;;5032392;28;20188;-75
2022/09/06 00:06:22;;;;;;;4.38;4.07;;;17.30;99.90;;;;;;5030672;28;20177;-74
2022/09/06 00:08:48;;;;;;;3.95;3.63;;;17.30;99.90;;;;;;5039194;28;20212;-74
2022/09/06 00:11:15;;;;;;;4.43;4.13;;;17.20;99.90;;;;;;5035912;28;20173;-74
2022/09/06 00:13:41;;;;;;;5.32;4.90;;;17.20;99.90;;;;;;5035743;28;20192;-74
2022/09/06 00:16:10;;;;;;;4.85;4.40;;;17.10;99.90;;;;;;5033976;28;20238;-74
2022/09/06 00:18:36;;;;;;;4.68;4.25;;;17.10;99.90;;;;;;5033518;28;20563;-74
2022/09/06 00:21:03;;;;;;;5.35;4.95;;;17.10;99.90;;;;;;5034651;28;20582;-74
2022/09/06 00:23:29;;;;;;;4.93;4.57;;;17.10;99.90;;;;;;5036225;28;20170;-74
2022/09/06 00:26:02;;;;;;;5.60;4.95;;;17.10;99.90;;;;;;5039607;28;20180;-74
2022/09/06 00:28:28;;;;;;;5.38;4.88;;;17.10;99.90;;;;;;5031668;28;20227;-75
2022/09/06 00:30:53;;;;;;;5.50;4.95;;;17.10;99.90;;;;;;5032562;28;20185;-75
2022/09/06 00:33:19;;;;;;;4.85;4.43;;;17.10;99.90;;;;;;5037365;28;20605;-75
2022/09/06 00:35:46;;;;;;;5.63;5.22;;;17.10;99.90;;;;;;5038049;28;20184;-74
2022/09/06 00:38:11;;;;;;;5.20;4.72;;;17.00;99.90;;;;;;5037317;28;20184;-74
2022/09/06 00:40:37;;;;;;;4.97;4.68;;;16.90;99.90;;;;;;5027207;28;20223;-74
2022/09/06 00:43:03;;;;;;;5.22;4.82;;;17.00;99.90;;;;;;5036270;28;20177;-74
2022/09/06 00:45:29;;;;;;;5.28;4.88;;;17.00;99.90;;;;;;5033075;28;20192;-74
2022/09/06 00:47:57;;;;;;;5.70;5.30;;;17.00;99.90;;;;;;5030105;28;20205;-75
2022/09/06 00:50:22;;;;;;;6.13;5.47;;;17.00;99.90;;;;;;5031842;28;20204;-75
2022/09/06 00:52:51;;;;;;;6.03;5.53;;;17.10;99.90;;;;;;5032890;28;20178;-75
2022/09/06 00:55:18;;;;;;;5.45;5.05;;;17.10;99.90;;;;;;5033846;28;20199;-74
2022/09/06 00:57:45;;;;;;;6.10;5.60;;;17.10;99.90;;;;;;5029749;28;20252;-74
2022/09/06 01:00:12;;;;;;;5.68;5.28;;;17.00;99.90;;;;;;5037580;28;20273;-74
2022/09/06 01:02:37;;;;;;;6.53;6.10;;;17.10;99.90;;;;;;5032125;28;20183;-74
2022/09/06 01:05:04;;;;;;;6.03;5.63;;;17.10;99.90;;;;;;5031536;28;20198;-74
2022/09/06 01:07:54;;;;;;;6.57;6.00;;;17.00;99.90;;;;;;5032471;28;20173;-74
2022/09/06 01:10:41;;;;;;;5.97;5.57;;;16.90;99.90;;;;;;5038959;28;20210;-74
2022/09/06 01:13:51;;;;;;;5.35;4.97;;;16.80;99.90;;;;;;5036916;28;20173;-74
2022/09/06 01:16:35;;;;;;;6.18;5.75;;;16.80;99.90;;;;;;5031505;28;20258;-74
2022/09/06 01:19:35;;;;;;;6.18;5.63;;;16.70;99.90;;;;;;5029380;28;20203;-74
2022/09/06 01:22:18;;;;;;;5.72;5.22;;;16.60;99.90;;;;;;5029155;28;20199;-74
2022/09/06 01:24:59;;;;;;;5.85;5.32;;;16.50;99.90;;;;;;5028275;28;20181;-74
2022/09/06 01:27:46;;;;;;;6.90;6.30;;;16.50;99.90;;;;;;5029909;28;20176;-74
2022/09/06 01:30:15;;;;;;;6.53;5.90;;;16.50;99.90;;;;;;5038644;28;20263;-74
2022/09/06 01:32:55;;;;;;;6.32;5.93;;;16.40;99.90;;;;;;5030050;28;20549;-74
2022/09/06 01:35:37;;;;;;;6.30;5.70;;;16.40;99.90;;;;;;5032138;28;20187;-74
2022/09/06 01:38:04;;;;;;;6.78;6.13;;;16.40;99.90;;;;;;5039111;28;20463;-74
2022/09/06 01:40:34;;;;;;;7.20;6.55;;;16.30;99.90;;;;;;5033955;28;20212;-74
2022/09/06 01:43:02;;;;;;;6.80;5.90;;;16.30;99.90;;;;;;5030047;28;20178;-74
2022/09/06 01:46:13;;;;;;;6.15;5.63;;;16.40;99.90;;;;;;5028151;28;20181;-73
2022/09/06 01:48:57;;;;;;;6.45;6.03;;;16.50;99.90;;;;;;5031491;28;22135;-73
2022/09/06 01:52:14;;;;;;;6.75;6.25;;;16.40;99.90;;;;;;5025358;28;20283;-73
2022/09/06 01:54:54;;;;;;;6.43;5.97;;;16.30;99.90;;;;;;5028900;28;20196;-73
2022/09/06 01:57:38;;;;;;;6.18;5.68;;;16.30;99.90;;;;;;5030373;28;20187;-73
2022/09/06 02:00:16;;;;;;;6.25;5.75;;;16.20;99.90;;;;;;5025778;28;20211;-74
2022/09/06 02:02:49;;;;;;;6.72;6.22;;;16.20;99.90;;;;;;5029368;28;20177;-75
2022/09/06 02:05:43;;;;;;;6.63;6.18;;;16.10;99.90;;;;;;5034541;28;20706;-73
2022/09/06 02:08:31;;;;;;;7.18;6.68;;;16.10;99.90;;;;;;5022931;28;20184;-74
2022/09/06 02:11:02;;;;;;;6.75;6.35;;;16.00;99.90;;;;;;5027499;28;20639;-74
2022/09/06 02:13:37;;;;;;;6.68;6.13;;;16.00;99.90;;;;;;5025169;28;20204;-74
2022/09/06 02:16:05;;;;;;;6.50;6.03;;;16.00;99.90;;;;;;5031432;28;20180;-73
2022/09/06 02:18:42;;;;;;;7.38;6.78;;;16.00;99.90;;;;;;5026267;28;20319;-73
2022/09/06 02:21:11;;;;;;;7.18;6.57;;;15.90;99.90;;;;;;5029507;28;20188;-74
2022/09/06 02:23:39;;;;;;;6.60;6.10;;;15.90;99.90;;;;;;5025292;28;20180;-74
2022/09/06 02:26:20;;;;;;;7.03;6.53;;;15.90;99.90;;;;;;5029380;28;20169;-74
2022/09/06 02:28:46;;;;;;;7.03;6.45;;;15.80;99.90;;;;;;5024429;28;20216;-74
2022/09/06 02:31:28;;;;;;;7.28;6.78;;;15.80;99.90;;;;;;5029819;28;20168;-74
2022/09/06 02:33:55;;;;;;;7.13;6.63;;;15.80;99.90;;;;;;5025419;28;20184;-75
2022/09/06 02:36:21;;;;;;;7.18;6.68;;;15.70;99.90;;;;;;5031865;28;20188;-74
2022/09/06 02:38:47;;;;;;;6.78;6.28;;;15.70;99.90;;;;;;5030665;28;20204;-75
2022/09/06 02:41:17;;;;;;;7.50;6.82;;;15.60;99.90;;;;;;5028452;28;20200;-75
2022/09/06 02:43:42;;;;;;;7.43;6.82;;;15.60;99.90;;;;;;5028513;28;20609;-75
2022/09/06 02:46:08;;;;;;;8.23;7.22;;;15.60;99.90;;;;;;5028776;28;20247;-75
2022/09/06 02:48:34;;;;;;;6.72;6.30;;;15.60;99.90;;;;;;5025960;28;20176;-75
2022/09/06 02:51:04;;;;;;;7.78;7.00;;;15.60;99.90;;;;;;5028648;28;20217;-75
2022/09/06 02:53:30;;;;;;;8.00;7.32;;;15.60;99.90;;;;;;5030292;28;20199;-74
2022/09/06 02:55:56;;;;;;;7.47;6.93;;;15.60;99.90;;;;;;5029548;28;20580;-75
2022/09/06 02:58:23;;;;;;;7.65;6.95;;;15.60;99.90;;;;;;5023556;28;20199;-75
2022/09/06 03:00:50;;;;;;;8.15;7.45;;;15.50;99.90;;;;;;5031452;28;20192;-75
2022/09/06 03:03:15;;;;;;;8.57;7.95;;;15.50;99.90;;;;;;5028748;28;20176;-74
2022/09/06 03:05:45;;;;;;;8.45;7.82;;;15.40;99.90;;;;;;5025890;28;20184;-75
2022/09/06 03:08:11;;;;;;;8.13;7.53;;;15.40;99.90;;;;;;5029706;28;20689;-76
2022/09/06 03:10:37;;;;;;;8.20;7.40;;;15.40;99.90;;;;;;5017876;28;20205;-75
2022/09/06 03:13:02;;;;;;;7.20;6.60;;;15.40;99.90;;;;;;5028468;28;20641;-75
2022/09/06 03:15:28;;;;;;;7.63;7.13;;;15.40;99.90;;;;;;5027013;28;20224;-74
2022/09/06 03:17:58;;;;;;;7.78;7.18;;;15.50;99.90;;;;;;5028356;28;20185;-75
2022/09/06 03:20:24;;;;;;;7.40;6.88;;;15.50;99.90;;;;;;5031877;28;20200;-74
2022/09/06 03:22:50;;;;;;;7.25;6.65;;;15.60;99.90;;;;;;5024828;28;20215;-73
2022/09/06 03:25:15;;;;;;;7.88;7.13;;;15.60;99.90;;;;;;5024842;28;20176;-74
2022/09/06 03:27:42;;;;;;;7.43;6.93;;;15.50;99.90;;;;;;5026531;28;20184;-73
2022/09/06 03:30:09;;;;;;;7.78;7.07;;;15.50;99.90;;;;;;5026581;28;20205;-74
2022/09/06 03:32:35;;;;;;;7.72;7.13;;;15.60;99.90;;;;;;5026877;28;20188;-73
2022/09/06 03:35:00;;;;;;;7.97;7.30;;;15.50;99.90;;;;;;5030449;28;20203;-74
2022/09/06 03:37:26;;;;;;;7.75;7.15;;;15.40;99.90;;;;;;5033525;28;20275;-74
2022/09/06 03:39:52;;;;;;;7.50;6.90;;;15.40;99.90;;;;;;5027155;28;20209;-74
2022/09/06 03:42:17;;;;;;;6.85;6.35;;;15.40;99.90;;;;;;5031630;28;20184;-74
2022/09/06 03:44:43;;;;;;;8.35;7.55;;;15.30;99.90;;;;;;5031871;28;20179;-74
2022/09/06 03:47:09;;;;;;;8.10;7.40;;;15.30;99.90;;;;;;5031756;28;20697;-74
2022/09/06 03:49:34;;;;;;;6.65;6.05;;;15.20;99.90;;;;;;5030714;28;20226;-74
2022/09/06 03:52:00;;;;;;;7.05;6.45;;;15.30;99.90;;;;;;5029842;28;20180;-74
2022/09/06 03:54:27;;;;;;;7.35;6.75;;;15.20;99.90;;;;;;5028046;28;20176;-74
2022/09/06 03:56:53;;;;;;;7.70;7.00;;;15.20;99.90;;;;;;5025558;28;20640;-73
2022/09/06 03:59:19;;;;;;;7.40;6.82;;;15.20;99.90;;;;;;5023318;28;20220;-74
2022/09/06 04:01:44;;;;;;;7.20;6.68;;;15.20;99.90;;;;;;5026244;28;20283;-74
2022/09/06 04:04:10;;;;;;;6.45;6.05;;;15.20;99.90;;;;;;5029684;28;20185;-74
2022/09/06 04:06:36;;;;;;;6.05;5.65;;;15.20;99.90;;;;;;5022954;28;20633;-74
2022/09/06 04:09:02;;;;;;;7.88;7.07;;;15.20;99.90;;;;;;5021356;28;20201;-74
2022/09/06 04:11:27;;;;;;;7.20;6.50;;;15.20;99.90;;;;;;5026562;28;20188;-74
2022/09/06 04:13:53;;;;;;;7.35;6.85;;;15.10;99.90;;;;;;5030121;28;20279;-75
2022/09/06 04:16:18;;;;;;;7.80;7.00;;;15.10;99.90;;;;;;5031979;28;20184;-74
2022/09/06 04:18:44;;;;;;;7.43;6.68;;;15.10;99.90;;;;;;5030842;28;20205;-74
2022/09/06 04:21:10;;;;;;;8.00;6.40;;;15.10;99.90;;;;;;5030449;28;20205;-74
2022/09/06 04:23:35;;;;;;;6.45;5.90;;;15.10;99.90;;;;;;5029490;28;20191;-75
2022/09/06 04:26:01;;;;;;;7.30;6.63;;;15.10;99.90;;;;;;5026277;28;20181;-75
2022/09/06 04:28:27;;;;;;;7.18;6.43;;;15.10;99.90;;;;;;5022729;28;20206;-75
2022/09/06 04:30:55;;;;;;;8.50;6.53;;;15.10;99.90;;;;;;5030448;28;20191;-74
2022/09/06 04:33:24;;;;;;;6.80;6.20;;;15.10;99.90;;;;;;5028872;28;20653;-74
2022/09/06 04:35:51;;;;;;;6.78;6.15;;;15.10;99.90;;;;;;5029173;28;20180;-74
2022/09/06 04:38:17;;;;;;;6.43;5.93;;;15.10;99.90;;;;;;5032366;28;20185;-74
2022/09/06 04:40:43;;;;;;;7.05;6.40;;;15.10;99.90;;;;;;5036190;28;20219;-74
2022/09/06 04:43:08;;;;;;;6.85;6.20;;;15.20;99.90;;;;;;5032066;28;20198;-74
2022/09/06 04:45:34;;;;;;;6.70;6.20;;;15.10;99.90;;;;;;5034552;28;20183;-74
2022/09/06 04:47:59;;;;;;;7.80;6.80;;;15.20;99.90;;;;;;5033553;28;20177;-74
2022/09/06 04:50:25;;;;;;;6.88;6.38;;;15.20;99.90;;;;;;5024721;28;20722;-74
2022/09/06 04:52:51;;;;;;;6.90;6.30;;;15.20;99.90;;;;;;5030492;28;20189;-76
2022/09/06 04:55:16;;;;;;;7.28;6.60;;;15.20;99.90;;;;;;5027745;28;20189;-75
2022/09/06 04:57:42;;;;;;;6.88;6.35;;;15.20;99.90;;;;;;5028749;28;20189;-76
2022/09/06 05:00:08;;;;;;;7.40;6.72;;;15.20;99.90;;;;;;5032798;28;20208;-76
2022/09/06 05:02:34;;;;;;;6.55;6.05;;;15.30;99.90;;;;;;5033519;28;20667;-75
2022/09/06 05:05:00;;;;;;;10.55;7.22;;;15.30;99.90;;;;;;5030010;28;20185;-75
2022/09/06 05:07:25;;;;;;;6.80;6.30;;;15.40;99.90;;;;;;5029609;28;20229;-75
2022/09/06 05:09:51;;;;;;;7.63;6.85;;;15.40;99.90;;;;;;5032232;28;20192;-76
2022/09/06 05:12:17;;;;;;;7.70;7.00;;;15.50;99.90;;;;;;5029501;28;20187;-75
2022/09/06 05:14:42;;;;;;;7.05;6.50;;;15.60;99.90;;;;;;5027730;28;20656;-75
2022/09/06 05:17:08;;;;;;;7.80;7.10;;;15.60;99.90;;;;;;5031071;28;20181;-74
2022/09/06 05:19:34;;;;;;;7.80;7.20;;;15.70;99.90;;;;;;5031887;28;20220;-74
2022/09/06 05:21:59;;;;;;;9.60;7.68;;;15.70;99.90;;;;;;5032101;28;20169;-76
2022/09/06 05:24:25;;;;;;;8.23;7.53;;;15.80;99.90;;;;;;5028322;28;20210;-76
2022/09/06 05:26:50;;;;;;;8.63;7.75;;;15.80;99.90;;;;;;5027198;28;20181;-76
2022/09/06 05:29:16;;;;;;;8.05;7.28;;;15.90;99.90;;;;;;5033706;28;20583;-75
2022/09/06 05:31:42;;;;;;;7.60;7.00;;;16.00;99.90;;;;;;5035747;28;20181;-77
2022/09/06 05:34:07;;;;;;;7.72;7.20;;;16.00;99.90;;;;;;5032106;28;20255;-78
2022/09/06 05:36:33;;;;;;;8.20;7.50;;;16.10;99.90;;;;;;5028604;28;20187;-77
2022/09/06 05:38:59;;;;;;;8.23;7.53;;;16.20;99.90;;;;;;5030077;28;20269;-78
2022/09/06 05:41:25;;;;;;;8.57;7.88;;;16.10;99.90;;;;;;5029775;28;20544;-77
2022/09/06 05:43:50;;;;;;;9.02;8.15;;;16.20;99.90;;;;;;5031350;28;20176;-79
2022/09/06 05:46:16;;;;;;;8.55;7.50;;;16.20;99.90;;;;;;5031080;28;20195;-78
2022/09/06 05:48:42;;;;;;;7.65;6.95;;;16.30;99.90;;;;;;5026559;28;20200;-77
2022/09/06 05:51:14;;;;;;;9.07;8.27;;;16.40;99.90;;;;;;5033860;28;20185;-74
2022/09/06 05:53:42;;;;;;;10.93;8.18;;;16.60;99.90;;;;;;5028246;28;20207;-73
2022/09/06 05:56:10;;;;;;;10.45;8.10;;;16.60;99.90;;;;;;5032529;28;20212;-73
2022/09/06 05:58:36;;;;;;;8.98;8.25;;;16.70;99.90;;;;;;5031864;28;20196;-74
2022/09/06 06:01:18;;;;;;;8.95;8.15;;;16.80;99.90;;;;;;5026932;28;20276;-72
2022/09/06 06:03:55;;;;;;;8.50;7.80;;;16.80;99.90;;;;;;5026889;28;20185;-73
2022/09/06 06:06:22;;;;;;;9.48;8.68;;;17.00;99.90;;;;;;5029640;28;20557;-75
2022/09/06 06:08:48;;;;;;;8.55;7.85;;;17.00;99.90;;;;;;5029736;28;20203;-74
2022/09/06 06:11:15;;;;;;;9.60;8.77;;;17.10;99.90;;;;;;5027355;28;20184;-73
2022/09/06 06:13:42;;;;;;;8.25;7.55;;;17.10;99.90;;;;;;5029128;28;20613;-74
2022/09/06 06:16:18;;;;;;;9.18;8.38;;;17.20;99.90;;;;;;5034257;28;20171;-73
2022/09/06 06:18:44;;;;;;;9.30;8.38;;;17.40;99.90;;;;;;5030209;28;20204;-72
2022/09/06 06:21:16;;;;;;;9.73;8.93;;;17.50;99.90;;;;;;5026872;28;20269;-72
2022/09/06 06:23:43;;;;;;;10.38;8.98;;;17.60;99.90;;;;;;5025595;28;20224;-73
2022/09/06 06:26:10;;;;;;;10.52;9.40;;;17.70;99.90;;;;;;5030742;28;20190;-72
2022/09/06 06:28:36;;;;;;;11.23;9.68;;;17.90;99.90;;;;;;5021543;28;20211;-72
2022/09/06 06:31:03;;;;;;;11.57;10.38;;;18.00;99.90;;;;;;5030489;28;20180;-73
2022/09/06 06:33:29;;;;;;;10.68;9.70;;;18.10;99.90;;;;;;5042816;28;20203;-73
2022/09/06 06:35:59;;;;;;;10.02;9.00;;;18.20;99.90;;;;;;5029026;28;21709;-74
2022/09/06 06:38:29;;;;;;;12.63;9.80;;;18.40;99.90;;;;;;5025040;28;20659;-75
2022/09/06 06:40:55;;;;;;;10.15;9.25;;;18.50;99.90;;;;;;5028755;28;20287;-77
2022/09/06 06:43:21;;;;;;;10.10;8.25;;;18.60;99.90;;;;;;5026797;28;20622;-72
2022/09/06 06:45:49;;;;;;;9.95;8.75;;;18.80;99.90;;;;;;5022147;28;20255;-73
2022/09/06 06:48:15;;;;;;;9.48;8.50;;;19.00;99.90;;;;;;5022152;28;20208;-73
2022/09/06 06:50:41;;;;;;;9.32;8.43;;;19.10;99.90;;;;;;5027121;28;20205;-75
2022/09/06 06:53:07;;;;;;;9.52;8.65;;;19.30;99.90;;;;;;5027934;28;20526;-75
2022/09/06 06:55:32;;;;;;;10.00;9.20;;;19.30;99.90;;;;;;5031223;28;20195;-75
2022/09/06 06:58:02;;;;;;;8.27;7.50;;;19.40;99.90;;;;;;5022481;28;20527;-73
2022/09/06 07:00:28;;;;;;;8.10;7.50;;;19.40;99.90;;;;;;5029257;28;20291;-72
2022/09/06 07:02:55;;;;;;;8.77;7.88;;;19.40;99.90;;;;;;5024037;28;20727;-76
2022/09/06 07:05:22;;;;;;;8.27;7.65;;;19.50;99.90;;;;;;5027961;28;20201;-73
2022/09/06 07:07:47;;;;;;;8.80;8.10;;;19.50;99.90;;;;;;5026688;28;20667;-73
2022/09/06 07:10:13;;;;;;;7.60;6.82;;;19.60;99.90;;;;;;5023518;28;20279;-73
2022/09/06 07:12:38;;;;;;;8.57;7.72;;;19.80;99.90;;;;;;5025006;28;20181;-73
2022/09/06 07:15:05;;;;;;;8.77;8.10;;;20.00;99.90;;;;;;5027734;28;20783;-73
2022/09/06 07:17:30;;;;;;;7.35;6.82;;;20.10;99.90;;;;;;5025414;28;20634;-76
2022/09/06 07:19:56;;;;;;;7.85;7.25;;;20.20;99.90;;;;;;5027597;28;20308;-72
2022/09/06 07:22:21;;;;;;;6.90;6.30;;;20.30;99.90;;;;;;5028830;28;20264;-72
2022/09/06 07:24:47;;;;;;;6.70;5.75;;;20.40;99.90;;;;;;5030877;28;20188;-72
2022/09/06 07:27:12;;;;;;;6.82;6.22;;;20.40;99.90;;;;;;5029682;28;20666;-72
2022/09/06 07:29:38;;;;;;;6.40;5.90;;;20.50;99.90;;;;;;5034850;28;20249;-72
2022/09/06 07:32:04;;;;;;;7.13;6.55;;;20.70;99.90;;;;;;5027273;28;20247;-72
2022/09/06 07:34:31;;;;;;;6.90;6.13;;;20.80;99.90;;;;;;5031547;28;20191;-72
2022/09/06 07:36:57;;;;;;;7.80;6.20;;;21.00;99.90;;;;;;5031914;28;20184;-73
2022/09/06 07:39:22;;;;;;;7.07;6.40;;;21.20;99.90;;;;;;5028916;28;20197;-74
2022/09/06 07:41:48;;;;;;;7.22;6.50;;;21.50;99.90;;;;;;5028901;28;20613;-71
2022/09/06 07:44:14;;;;;;;6.95;6.28;;;21.90;99.90;;;;;;5031966;28;20275;-71
2022/09/06 07:46:40;;;;;;;7.50;6.90;;;22.40;99.90;;;;;;5028296;28;20234;-71
2022/09/06 07:49:06;;;;;;;6.10;5.72;;;23.00;99.90;;;;;;5027533;28;20201;-71
2022/09/06 07:51:32;;;;;;;6.80;6.30;;;23.20;99.90;;;;;;5039328;28;20192;-74
2022/09/06 07:53:58;;;;;;;6.30;5.80;;;23.30;99.90;;;;;;5029217;28;20181;-73
2022/09/06 07:56:24;;;;;;;6.50;6.10;;;23.40;99.90;;;;;;5032200;28;20211;-73
2022/09/06 07:58:51;;;;;;;6.82;5.90;;;23.10;99.90;;;;;;5031532;28;20200;-73
2022/09/06 08:01:36;;;;;;;7.40;6.70;;;22.90;99.90;;;;;;5027930;28;20204;-74
2022/09/06 08:04:05;;;;;;;6.82;6.28;;;23.00;99.90;;;;;;5026785;28;20181;-73
2022/09/06 08:06:35;;;;;;;6.47;5.90;;;23.20;99.90;;;;;;5029281;28;20219;-74
2022/09/06 08:09:02;;;;;;;6.75;6.05;;;23.40;99.90;;;;;;5031047;28;20200;-74
2022/09/06 08:11:30;;;;;;;7.05;6.55;;;23.70;99.90;;;;;;5032683;28;20608;-73
2022/09/06 08:13:57;;;;;;;7.30;6.70;;;23.70;99.90;;;;;;5031395;28;20203;-73
2022/09/06 08:16:29;;;;;;;7.50;6.85;;;23.70;99.90;;;;;;5023199;28;20212;-73
2022/09/06 08:18:59;;;;;;;7.45;6.75;;;23.80;99.90;;;;;;5031346;28;20199;-73
2022/09/06 08:21:27;;;;;;;7.07;6.50;;;24.00;99.90;;;;;;5026596;28;20215;-73
2022/09/06 08:23:56;;;;;;;7.20;6.60;;;24.20;99.90;;;;;;5031354;28;20202;-74
2022/09/06 08:26:23;;;;;;;7.32;6.30;;;24.30;99.90;;;;;;5030962;28;20173;-74
2022/09/06 08:28:53;;;;;;;6.75;6.22;;;24.30;99.90;;;;;;5028974;28;20288;-74
2022/09/06 08:31:19;;;;;;;6.75;6.25;;;24.30;99.90;;;;;;5032823;28;20185;-74
2022/09/06 08:33:46;;;;;;;7.07;6.47;;;24.40;99.90;;;;;;5029956;28;20187;-74
2022/09/06 08:36:13;;;;;;;6.20;5.80;;;24.50;99.90;;;;;;5029037;28;20172;-72
2022/09/06 08:38:39;;;;;;;7.00;6.40;;;24.50;99.90;;;;;;5031966;28;20702;-72
2022/09/06 08:41:43;;;;;;;7.60;6.90;;;24.50;99.90;;;;;;5028957;28;20236;-71
2022/09/06 08:44:38;;;;;;;7.22;6.72;;;24.60;99.90;;;;;;5030131;28;20267;-72
2022/09/06 08:47:09;;;;;;;6.90;5.90;;;24.50;99.90;;;;;;5028201;28;20264;-72
2022/09/06 08:49:51;;;;;;;7.20;6.57;;;24.70;99.90;;;;;;5032745;28;20200;-71
2022/09/06 08:52:37;;;;;;;7.40;6.80;;;24.80;99.90;;;;;;5031151;28;20270;-72
2022/09/06 08:55:27;;;;;;;7.22;6.63;;;24.80;99.90;;;;;;5028473;28;20184;-74
2022/09/06 08:58:08;;;;;;;7.25;6.65;;;25.00;99.90;;;;;;5033002;28;20172;-73
2022/09/06 09:00:37;;;;;;;6.78;6.22;;;25.30;99.90;;;;;;5027355;28;20211;-69
2022/09/06 09:03:13;;;;;;;6.47;6.07;;;25.80;99.90;;;;;;5028979;28;20449;-69
2022/09/06 09:05:41;;;;;;;6.80;6.20;;;27.10;99.90;;;;;;5026672;28;20172;-69
2022/09/06 09:08:27;;;;;;;6.05;5.55;;;28.80;99.90;;;;;;5027839;28;20261;-70
2022/09/06 09:10:53;;;;;;;5.05;4.75;;;30.60;96.60;;;;;;5028021;28;20208;-69
2022/09/06 09:13:23;;;;;;;6.03;4.95;;;31.80;92.40;;;;;;5027478;28;20234;-69
2022/09/06 09:15:48;;;;;;;4.97;4.70;;;32.60;88.40;;;;;;5022961;28;20647;-69
2022/09/06 09:18:21;;;;;;;5.07;4.78;;;32.90;83.00;;;;;;5028136;28;20271;-71
2022/09/06 09:20:47;;;;;;;4.70;4.40;;;33.10;80.70;;;;;;5035303;28;20206;-71
2022/09/06 09:23:13;;;;;;;5.40;5.00;;;33.60;77.60;;;;;;5027673;28;20254;-71
2022/09/06 09:25:39;;;;;;;4.13;3.80;;;34.20;75.30;;;;;;5028001;28;20639;-71
2022/09/06 09:28:13;;;;;;;4.65;4.25;;;34.90;71.40;;;;;;5025566;28;20242;-71
2022/09/06 09:30:50;;;;;;;6.80;3.95;;;35.50;69.30;;;;;;5020678;28;20231;-69
2022/09/06 09:33:33;;;;;;;4.35;3.95;;;36.00;66.40;;;;;;5028913;28;20171;-69
2022/09/06 09:36:01;;;;;;;4.43;4.00;;;37.00;64.40;;;;;;5030609;28;20626;-70
2022/09/06 09:38:30;;;;;;;5.13;4.72;;;37.80;60.40;;;;;;5030893;28;20271;-70
2022/09/06 09:41:00;;;;;;;3.65;3.45;;;38.20;58.20;;;;;;5031237;28;20675;-70
2022/09/06 09:43:31;;;;;;;4.45;4.20;;;38.20;58.00;;;;;;5030191;28;20254;-72
2022/09/06 09:46:14;;;;;;;4.05;3.78;;;38.80;56.80;;;;;;5028335;28;20270;-73
2022/09/06 09:48:59;;;;;;;4.07;3.70;;;39.20;54.70;;;;;;5028483;28;20176;-71
2022/09/06 09:51:26;;;;;;;3.83;3.38;;;39.10;55.60;;;;;;5029662;28;20302;-71
2022/09/06 09:54:00;;;;;;;3.92;3.35;;;39.20;55.90;;;;;;5023737;28;20183;-70
2022/09/06 09:56:48;;;;;;;2.90;2.80;;;40.00;53.20;;;;;;5025148;28;20530;-71
2022/09/06 09:59:27;;;;;;;5.22;3.33;;;40.40;52.50;;;;;;5023643;28;20697;-71
2022/09/06 10:02:00;;;;;;;3.60;3.40;;;40.70;52.30;;;;;;5027137;28;20199;-70
2022/09/06 10:04:34;;;;;;;4.18;3.90;;;40.60;50.70;;;;;;5021635;28;20203;-70
2022/09/06 10:07:21;;;;;;;3.97;3.70;;;40.10;51.50;;;;;;5026568;28;20379;-70
2022/09/06 10:09:55;;;;;;;3.92;3.63;;;40.00;51.20;;;;;;5022754;28;20236;-70
2022/09/06 10:12:34;;;;;;;3.42;3.22;;;40.00;51.60;;;;;;5026021;28;20262;-70
2022/09/06 10:15:00;;;;;;;3.80;3.50;;;40.30;50.90;;;;;;5022697;28;20189;-71
2022/09/06 10:17:30;;;;;;;3.40;3.15;;;40.90;50.10;;;;;;5022686;28;20246;-71
2022/09/06 10:20:01;;;;;;;3.65;3.38;;;41.30;49.60;;;;;;5029078;28;20192;-71
2022/09/06 10:22:58;;;;;;;5.85;3.70;;;41.60;49.00;;;;;;5022483;28;20180;-71
2022/09/06 10:25:45;;;;;;;3.50;3.20;;;42.10;48.30;;;;;;5027555;28;20180;-72
2022/09/06 10:28:28;;;;;;;3.20;3.10;;;42.10;48.10;;;;;;5032218;28;20199;-73
2022/09/06 10:31:09;;;;;;;4.85;3.05;;;42.40;47.70;;;;;;5028180;28;20187;-73
2022/09/06 10:33:40;;;;;;;3.72;3.42;;;43.10;46.50;;;;;;5025335;28;20565;-72
2022/09/06 10:36:06;;;;;;;3.17;2.92;;;43.10;46.50;;;;;;5028321;28;20176;-74
2022/09/06 10:38:40;;;;;;;3.35;3.08;;;43.70;45.20;;;;;;5027857;28;20262;-71
2022/09/06 10:41:23;;;;;;;3.15;2.95;;;43.40;45.50;;;;;;5032333;28;20257;-72
2022/09/06 10:44:15;;;;;;;3.47;3.30;;;43.80;45.70;;;;;;5028038;28;20171;-71
2022/09/06 10:46:44;;;;;;;3.10;2.92;;;43.80;44.50;;;;;;5032879;28;20186;-70
2022/09/06 10:49:15;;;;;;;3.30;2.97;;;43.90;44.70;;;;;;5032920;28;20191;-69
2022/09/06 10:51:53;;;;;;;4.25;3.30;;;43.70;44.60;;;;;;5033872;28;20215;-69
2022/09/06 10:54:23;;;;;;;3.70;3.50;;;43.30;45.00;;;;;;5030556;28;20188;-70
2022/09/06 10:56:57;;;;;;;3.42;3.13;;;43.20;44.90;;;;;;5031917;28;20180;-70
2022/09/06 10:59:34;;;;;;;3.35;3.05;;;43.40;45.00;;;;;;5027171;28;20221;-69
2022/09/06 11:02:15;;;;;;;2.88;2.78;;;43.40;44.70;;;;;;5032060;28;20204;-69
2022/09/06 11:04:43;;;;;;;3.38;3.08;;;44.00;44.30;;;;;;5026626;28;20184;-69
2022/09/06 11:07:53;;;;;;;3.38;2.90;;;45.10;42.40;;;;;;5034376;28;20992;-69
2022/09/06 11:10:36;;;;;;;2.42;2.33;;;45.30;41.60;;;;;;5021471;28;20596;-69
2022/09/06 11:13:13;;;;;;;2.72;2.60;;;45.60;41.10;;;;;;5033885;28;20237;-68
2022/09/06 11:15:45;;;;;;;3.20;3.00;;;45.40;41.10;;;;;;5031368;28;20179;-67
2022/09/06 11:18:15;;;;;;;2.88;2.67;;;44.30;41.40;;;;;;5031796;28;20188;-68
2022/09/06 11:20:49;;;;;;;2.60;2.40;;;44.30;42.40;;;;;;5028600;28;20216;-68
2022/09/06 11:23:30;;;;;;;3.55;3.10;;;44.70;41.00;;;;;;5035591;28;20658;-68
2022/09/06 11:26:15;;;;;;;2.35;2.25;;;44.30;41.60;;;;;;5031207;28;20193;-68
2022/09/06 11:28:50;;;;;;;2.30;2.20;;;44.30;41.60;;;;;;5038690;28;20176;-68
2022/09/06 11:31:28;;;;;;;2.28;2.17;;;44.50;39.70;;;;;;5027120;28;20722;-68
2022/09/06 11:34:18;;;;;;;2.40;2.20;;;44.80;39.20;;;;;;5030911;28;20190;-68
2022/09/06 11:36:47;;;;;;;2.00;1.90;;;44.80;38.20;;;;;;5030571;28;20704;-72
2022/09/06 11:39:22;;;;;;;2.83;2.38;;;44.80;38.40;;;;;;5030478;28;20200;-72
2022/09/06 11:41:48;;;;;;;2.33;2.22;;;44.30;39.60;;;;;;5031706;28;20771;-71
2022/09/06 11:44:48;;;;;;;3.25;2.50;;;43.80;39.80;;;;;;5036166;28;20258;-71
2022/09/06 11:47:43;;;;;;;2.45;1.90;;;43.30;40.20;;;;;;5033277;28;20180;-72
2022/09/06 11:50:23;;;;;;;2.13;2.03;;;42.50;41.00;;;;;;5032412;28;20199;-72
2022/09/06 11:52:58;;;;;;;2.30;2.10;;;42.60;41.60;;;;;;5033496;28;20271;-71
2022/09/06 11:55:37;;;;;;;2.33;2.22;;;43.00;41.80;;;;;;5034620;28;20171;-71
2022/09/06 11:58:27;;;;;;;2.30;2.10;;;43.40;40.90;;;;;;5032343;28;20416;-73
2022/09/06 12:01:11;;;;;;;2.03;1.92;;;43.60;39.90;;;;;;5032063;28;20256;-73
2022/09/06 12:03:51;;;;;;;2.30;2.20;;;43.40;40.30;;;;;;5024358;28;20249;-73
2022/09/06 12:06:26;;;;;;;2.10;2.00;;;42.70;42.00;;;;;;5036096;28;20642;-73
2022/09/06 12:08:53;;;;;;;2.58;2.10;;;42.80;40.80;;;;;;5028682;28;20712;-74
2022/09/06 12:11:26;;;;;;;5.22;2.25;;;43.30;40.90;;;;;;5030651;28;20239;-73
2022/09/06 12:14:30;;;;;;;2.30;2.10;;;43.60;40.90;;;;;;5030579;28;20200;-73
2022/09/06 12:17:03;;;;;;;2.47;2.22;;;44.30;40.10;;;;;;5039461;28;20209;-73
2022/09/06 12:20:06;;;;;;;1.95;1.83;;;44.10;38.80;;;;;;5036302;28;20201;-73
2022/09/06 12:22:32;;;;;;;3.95;1.95;;;43.50;39.20;;;;;;5030462;28;20199;-73
2022/09/06 12:25:34;;;;;;;2.33;2.05;;;42.80;40.00;;;;;;5030498;28;20172;-72
2022/09/06 12:28:05;;;;;;;2.58;2.00;;;42.30;40.70;;;;;;5032815;28;20259;-72
2022/09/06 12:30:41;;;;;;;4.75;2.05;;;41.50;42.40;;;;;;5031101;28;20211;-71
2022/09/06 12:33:35;;;;;;;4.47;2.20;;;41.40;42.00;;;;;;5027953;28;20180;-72
2022/09/06 12:36:20;;;;;;;2.13;1.92;;;40.90;42.50;;;;;;5027406;28;20184;-71
2022/09/06 12:39:00;;;;;;;3.63;2.00;;;41.20;42.60;;;;;;5023640;28;20209;-74
2022/09/06 12:41:29;;;;;;;2.25;1.98;;;41.60;41.90;;;;;;5029540;28;20214;-73
2022/09/06 12:43:58;;;;;;;2.10;1.80;;;41.20;42.20;;;;;;5032015;28;20663;-71
2022/09/06 12:46:25;;;;;;;4.05;2.10;;;41.30;42.00;;;;;;5025276;28;20427;-74
2022/09/06 12:49:07;;;;;;;2.35;2.05;;;41.30;41.80;;;;;;5023388;28;20254;-74
2022/09/06 12:51:33;;;;;;;2.22;2.03;;;40.90;42.70;;;;;;5028644;28;20188;-75
2022/09/06 12:54:02;;;;;;;2.88;2.03;;;40.70;42.90;;;;;;5032757;28;20212;-74
2022/09/06 12:56:31;;;;;;;3.78;1.98;;;40.90;42.80;;;;;;5031239;28;20317;-75
2022/09/06 12:59:23;;;;;;;2.55;1.73;;;40.90;42.40;;;;;;5027386;28;20199;-68
2022/09/06 13:02:01;;;;;;;2.17;2.08;;;40.90;42.20;;;;;;5026455;28;20574;-68
2022/09/06 13:04:50;;;;;;;3.05;1.90;;;40.60;43.20;;;;;;5029219;28;20255;-68
2022/09/06 13:07:19;;;;;;;2.78;2.10;;;40.30;43.10;;;;;;5026674;28;20188;-69
2022/09/06 13:09:47;;;;;;;2.25;2.05;;;40.10;43.80;;;;;;5028540;28;20691;-68